Dover, MN (55929)

9:10 PM CDT on July 25, 2016 (GMT -0500)
Kieffer Hills Drive | | Change Station

Elev 1263 ft 43.96 °N, 92.07 °W | Updated 45 seconds ago

Clear
Clear
77.0 °F
Feels Like 79 °F
N
2.2
Wind Variable Wind from West
Gusts 3.8 mph

Today
High -- | Low -- °F
--% Chance of Precip.
Yesterday
High -- | Low -- °F
Precip. -- in
Pressure 30.05 in
Visibility 10.0 miles
Clouds Clear
Heat Index 79 °F
Dew Point 67 °F
Humidity 72%
Rainfall 0.00 in
Snow Depth Not available.
5:49 AM 8:39 PM
Waning Gibbous, 60% visible
METAR K9MN 260154Z AUTO 28004KT 10SM CLR 25/18 A3005 RMK AO1 T02530179
Pressure 30.05 in
Visibility 10.0 miles
Clouds Clear
Heat Index 79 °F
Dew Point 67 °F
Humidity 72%
Rainfall 0.00 in
Snow Depth Not available.
5:49 AM 8:39 PM
Waning Gibbous, 60% visible
METAR K9MN 260154Z AUTO 28004KT 10SM CLR 25/18 A3005 RMK AO1 T02530179

10-Day Weather Forecast

Almanac

Astronomy

Jul. 25, 2016 Rise Set
Actual Time
Civil Twilight
Nautical Twilight
Astronomical Twilight
Moon
Length of Visible Light
Length of Day
Tomorrow will be .
, % of the Moon is Illuminated

Today's Extremes

State Highs State Lows

Community

WunderPhotos

Upload Photos

1,927,497 photos uploaded!

WunderBlog® & News

Nearby

Air Quality

  Air Quality AQ Index Pollutant
Not available.

Snow Depth

Station Depth Elevation

Earthquake Activity

City Distance Mag. Time & Date
Minimum magnitude displayed is 2.5.

Coastal Water Temperatures

Place Temperature

Stations

Nearby Weather Stations

Station Location Temp. Windchill Dew Point Humidity Wind Precip. Elev Updated Type
                   

Watches & Warnings

There are currently no watches in effect.